Latest Weather Observations for Inverell RS

IDN60801

Issued at 1:32 pm EDT Saturday 6 February 2016 (issued every 30 minutes, with the page automatically refreshed every 10 minutes)

About weather observations | Map of weather stations | Latest weather observations for NSW | Other Formats
Station Details ID: 056018 Name: INVERELL RESEARCH CENTRE Lat: -29.78 Lon: 151.08 Height: 664.0 m
Data from the previous 72 hours. | See also: Recent months at Inverell RS
Date/Time
EDT
Temp
°C
App
Temp
°C
Dew
Point
Rel
Hum
%
Delta-T
°C
Wind Press
QNH
hPa
Press
MSL
hPa
Rain
since 9 am
mm
Dir
 
Spd
km/h
Gust
km/h
Spd
kts
Gust
kts
06/01:30pm 26.3 25.4 13.6 45 7.7 SSE 11 17 6 9 1014.4 - 0.0
06/01:00pm 24.9 23.3 12.8 47 7.2 ESE 13 20 7 11 1014.6 - 0.0
06/12:30pm 24.8 24.0 13.9 50 6.6 E 11 17 6 9 1014.9 - 0.0
06/12:00pm 24.0 23.0 13.5 52 6.3 ESE 11 15 6 8 1015.2 1011.7 0.0
06/11:30am 24.2 23.0 14.1 53 6.1 SSE 13 22 7 12 1015.4 - 0.0
06/11:00am 23.3 21.5 13.2 53 6.0 ESE 15 22 8 12 1015.3 - 0.0
06/10:30am 22.9 21.4 13.1 54 5.8 SE 13 19 7 10 1015.2 - 0.0
06/09:30am 22.0 20.0 12.8 56 5.4 ESE 15 24 8 13 1015.2 - 0.0
06/09:00am 21.3 19.4 13.0 59 4.9 SE 15 24 8 13 1015.0 1011.5 0.0
06/08:30am 20.7 18.9 13.2 62 4.4 SE 15 22 8 12 1014.7 - 0.0
06/08:00am 19.0 17.5 13.0 68 3.5 SSE 13 22 7 12 1014.5 - 0.0
06/07:30am 18.3 16.6 12.6 69 3.3 SSE 13 20 7 11 1014.4 - 0.0
06/07:00am 17.6 15.8 12.2 70 3.1 S 13 19 7 10 1013.7 - 0.0
06/06:30am 17.0 14.7 11.9 72 2.9 S 15 19 8 10 1013.4 - 0.0
06/06:00am 16.9 15.4 12.0 73 2.8 S 11 15 6 8 1013.1 1009.5 0.0
06/05:30am 16.9 15.2 12.5 75 2.5 SSE 13 19 7 10 1013.0 - 0.0
06/05:00am 17.4 16.2 12.7 74 2.7 S 11 15 6 8 1013.0 - 0.0
06/04:30am 17.8 16.3 13.0 73 2.8 S 13 19 7 10 1013.0 - 0.0
06/04:00am 17.9 16.5 13.3 74 2.7 S 13 15 7 8 1012.8 - 0.0
06/03:30am 17.7 17.1 13.4 76 2.5 SSE 9 13 5 7 1012.8 - 0.0
06/03:00am 17.6 16.6 13.3 76 2.5 SSE 11 13 6 7 1013.1 1009.5 0.0
06/02:30am 17.8 17.2 13.5 76 2.5 S 9 11 5 6 1013.3 - 0.0
06/02:00am 17.9 17.2 13.3 74 2.7 S 9 11 5 6 1013.6 - 0.0
06/01:30am 18.1 16.7 13.3 73 2.8 S 13 17 7 9 1013.8 - 0.0
06/01:00am 18.5 17.8 13.2 71 3.1 SSW 9 13 5 7 1014.1 - 0.0
06/12:30am 18.9 17.5 13.3 70 3.3 SSE 13 20 7 11 1014.1 - 0.0
06/12:00am 19.2 17.7 13.2 68 3.5 SE 13 22 7 12 1014.2 1010.6 0.0
 
Date/Time
EDT
Temp
°C
App
Temp
°C
Dew
Point
Rel
Hum
%
Delta-T
°C
Wind Press
QNH
hPa
Press
MSL
hPa
Rain
since 9 am
mm
Dir
 
Spd
km/h
Gust
km/h
Spd
kts
Gust
kts
05/11:30pm 19.1 17.8 13.7 71 3.2 SE 13 19 7 10 1014.6 - 0.0
05/11:00pm 19.4 18.1 13.8 70 3.3 SE 13 20 7 11 1014.8 - 0.0
05/10:30pm 19.4 18.2 14.0 71 3.2 SSE 13 24 7 13 1014.9 - 0.0
05/10:00pm 19.6 18.4 13.9 69 3.4 SSE 13 19 7 10 1014.9 - 0.0
05/09:30pm 20.1 18.8 13.7 66 3.8 SE 13 19 7 10 1014.7 - 0.0
05/09:00pm 20.5 18.8 13.6 64 4.1 SE 15 24 8 13 1014.4 1010.8 0.0
05/08:30pm 21.3 18.7 13.2 60 4.8 ESE 19 30 10 16 1013.8 - 0.0
05/08:00pm 21.9 19.3 13.9 60 4.8 ESE 20 32 11 17 1013.3 - 0.0
05/07:30pm 22.3 20.7 14.9 63 4.5 SE 17 28 9 15 1013.0 - 0.0
05/07:00pm 23.4 20.7 14.5 57 5.4 SE 22 35 12 19 1012.7 - 0.0
05/06:30pm 24.8 22.9 15.1 54 6.0 SE 19 33 10 18 1012.0 - 0.0
05/06:00pm 25.4 21.5 14.3 50 6.8 SE 28 41 15 22 1011.7 1008.1 0.0
05/05:30pm 26.8 24.5 14.7 47 7.5 ESE 20 30 11 16 1011.5 - 0.0
05/05:00pm 27.5 25.3 15.0 46 7.8 ESE 20 30 11 16 1011.5 - 0.0
05/04:30pm 28.0 25.8 14.8 44 8.2 ESE 20 32 11 17 1011.6 - 0.0
05/04:00pm 27.6 25.2 14.5 44 8.1 ESE 20 32 11 17 1011.8 - 0.0
05/03:30pm 27.2 24.0 14.2 44 8.0 E 24 33 13 18 1012.1 - 0.0
05/03:00pm 27.0 24.5 14.1 45 7.9 ESE 20 32 11 17 1012.3 1008.8 0.0
05/02:30pm 28.4 26.2 15.0 44 8.4 ESE 20 35 11 19 1012.6 - 0.0
05/02:00pm 27.2 24.0 14.2 44 8.0 ESE 24 39 13 21 1012.9 - 0.0
05/01:30pm 25.8 22.8 13.8 47 7.3 ESE 22 37 12 20 1013.2 - 0.0
05/01:00pm 27.6 24.7 15.1 46 7.8 SE 24 37 13 20 1013.4 - 0.0
05/12:30pm 26.3 23.8 14.2 47 7.4 SE 20 37 11 20 1013.5 - 0.0
05/12:00pm 26.5 24.0 14.1 46 7.6 ESE 20 35 11 19 1013.5 1010.0 0.0
05/11:30am 26.4 24.1 14.6 48 7.3 SE 20 32 11 17 1013.5 - 0.0
05/11:00am 26.2 23.0 14.3 48 7.3 ESE 24 39 13 21 1013.5 - 0.0
05/10:30am 24.5 21.5 13.7 51 6.5 SE 22 33 12 18 1013.4 - 0.0
05/10:00am 24.7 21.4 14.0 51 6.5 ESE 24 35 13 19 1013.1 - 0.0
05/09:30am 24.2 21.7 14.2 53 6.1 ESE 20 32 11 17 1013.2 - 0.0
05/09:00am 23.4 21.1 14.0 55 5.7 SE 19 30 10 16 1013.0 1009.4 0.0
05/08:30am 22.4 20.9 14.1 59 5.0 SE 15 24 8 13 1012.6 - 0.0
05/08:00am 21.4 19.9 14.3 64 4.3 SE 15 22 8 12 1012.2 - 0.0
05/07:30am 19.7 18.8 13.8 69 3.5 SSE 11 15 6 8 1011.9 - 0.0
05/07:00am 18.9 17.6 13.8 72 3.0 S 13 19 7 10 1011.6 - 0.0
05/06:30am 18.2 17.0 14.0 76 2.5 S 13 15 7 8 1011.3 - 0.0
05/06:00am 18.3 17.5 14.1 76 2.5 S 11 17 6 9 1010.9 1007.3 0.0
05/05:30am 18.4 17.2 14.0 75 2.6 S 13 20 7 11 1010.5 - 0.0
05/05:00am 18.3 17.1 14.1 76 2.5 S 13 19 7 10 1010.3 - 0.0
05/04:30am 18.1 17.6 13.9 76 2.5 SSW 9 15 5 8 1010.2 - 0.0
05/04:00am 18.6 17.8 13.9 74 2.8 S 11 17 6 9 1010.3 - 0.0
05/03:30am 18.7 18.3 14.0 74 2.8 SSE 9 15 5 8 1010.6 - 0.0
05/03:00am 18.9 17.7 14.0 73 2.9 S 13 20 7 11 1010.7 1007.2 0.0
05/02:30am 18.8 18.3 13.9 73 2.9 S 9 13 5 7 1011.0 - 0.0
05/02:00am 18.9 18.5 14.0 73 2.9 S 9 13 5 7 1011.3 - 0.0
05/01:30am 18.9 18.6 14.4 75 2.7 SSE 9 13 5 7 1011.7 - 0.0
05/01:00am 19.5 18.4 14.3 72 3.1 SSE 13 19 7 10 1012.0 - 0.0
05/12:30am 18.8 18.5 14.3 75 2.7 SSE 9 13 5 7 1012.0 - 0.0
05/12:00am 18.6 18.4 14.8 78 2.3 SE 9 13 5 7 1012.2 1008.7 0.0
 
Date/Time
EDT
Temp
°C
App
Temp
°C
Dew
Point
Rel
Hum
%
Delta-T
°C
Wind Press
QNH
hPa
Press
MSL
hPa
Rain
since 9 am
mm
Dir
 
Spd
km/h
Gust
km/h
Spd
kts
Gust
kts
04/11:30pm 18.6 18.9 14.9 79 2.2 SE 7 11 4 6 1012.3 - 0.0
04/11:00pm 19.3 19.1 14.8 75 2.7 SE 9 13 5 7 1012.2 - 0.0
04/10:30pm 19.5 19.9 15.2 76 2.6 ESE 7 9 4 5 1012.2 - 0.0
04/10:00pm 20.3 20.2 15.0 71 3.2 SE 9 17 5 9 1011.8 - 0.0
04/09:30pm 21.0 20.1 14.9 68 3.7 ESE 13 19 7 10 1011.6 - 0.0
04/09:00pm 21.6 20.8 15.2 67 3.9 SE 13 24 7 13 1011.2 1007.6 0.0
04/08:30pm 22.4 21.6 15.0 63 4.5 ESE 13 19 7 10 1010.9 - 0.0
04/08:00pm 23.3 21.2 14.8 59 5.2 ESE 19 28 10 15 1010.1 - 0.0
04/07:30pm 23.8 22.3 15.4 59 5.2 ESE 17 28 9 15 1009.6 - 0.0
04/07:00pm 24.4 22.9 15.4 57 5.6 SE 17 28 9 15 1009.1 - 0.0
04/06:30pm 25.6 24.0 14.9 51 6.6 SE 17 32 9 17 1008.4 - 0.0
04/06:00pm 26.8 25.1 16.2 52 6.7 SE 20 32 11 17 1008.0 1004.4 0.0
04/05:30pm 27.9 26.6 15.9 48 7.6 SE 17 28 9 15 1007.5 - 0.0
04/05:00pm 27.7 27.0 16.4 50 7.2 SE 15 28 8 15 1007.3 - 0.0
04/04:30pm 28.0 26.8 16.2 48 7.5 ESE 17 30 9 16 1007.2 - 0.0
04/04:00pm 27.5 26.7 16.2 50 7.2 ESE 15 22 8 12 1007.7 - 0.0
04/03:30pm 28.2 27.0 16.1 47 7.7 E 17 30 9 16 1007.8 - 0.0
04/03:00pm 28.1 26.2 15.8 47 7.8 E 20 30 11 16 1008.3 1004.6 0.0
04/02:30pm 27.6 26.6 16.7 51 7.0 SE 17 26 9 14 1008.9 - 0.0
04/02:00pm 27.5 26.5 17.5 54 6.5 ESE 19 30 10 16 1009.1 - 0.0
04/01:30pm 25.8 23.6 16.9 58 5.7 ESE 24 33 13 18 1009.5 - 0.0
04/01:00pm 26.1 26.0 17.9 60 5.3 ESE 15 22 8 12 1009.7 - 0.0
04/12:30pm 25.6 25.6 18.2 63 4.8 SE 15 22 8 12 1009.8 - 0.0
04/12:00pm 25.4 26.0 18.5 65 4.5 SE 13 19 7 10 1009.8 1006.1 0.0
04/11:30am 25.0 25.8 19.1 70 3.9 SSE 13 24 7 13 1009.8 - 0.0
04/11:00am 24.1 24.2 17.5 66 4.2 ESE 13 17 7 9 1009.6 - 0.0
04/10:30am 24.4 23.9 17.9 67 4.2 E 17 24 9 13 1009.5 - 0.0
04/10:00am 23.6 24.0 18.2 71 3.5 ESE 13 20 7 11 1009.4 - 0.0
04/09:30am 23.4 23.4 18.1 72 3.4 E 15 19 8 10 1009.3 - 0.0
04/09:00am 23.1 23.1 18.0 73 3.3 E 15 17 8 9 1009.0 1005.4 0.4
04/08:30am 22.3 22.8 18.4 78 2.5 E 13 17 7 9 1008.7 - 0.4
04/08:00am 22.2 22.5 17.8 76 2.8 E 13 15 7 8 1008.6 - 0.4
04/07:30am 21.7 22.7 17.8 78 2.5 E 9 11 5 6 1008.2 - 0.4
04/07:00am 21.6 22.7 18.0 80 2.3 NE 9 13 5 7 1007.8 - 0.4
04/06:30am 21.4 22.3 17.6 79 2.4 NE 9 11 5 6 1007.3 - 0.4
04/06:00am 21.2 21.8 17.6 80 2.3 E 11 17 6 9 1007.0 1003.4 0.4
04/05:30am 21.2 22.6 17.9 81 2.1 E 7 9 4 5 1006.7 - 0.4
04/05:00am 21.1 22.5 17.8 81 2.1 E 7 9 4 5 1006.4 - 0.4
04/04:30am 21.1 22.5 17.8 81 2.1 ENE 7 11 4 6 1006.1 - 0.4
04/04:00am 21.0 21.4 18.2 84 1.8 E 13 19 7 10 1005.9 - 0.4
04/03:30am 21.3 22.5 19.8 91 1.0 ESE 13 15 7 8 1005.8 - 0.4
04/03:00am 22.1 24.5 20.9 93 0.8 ESE 9 9 5 5 1006.1 1002.4 0.4
04/02:30am 22.3 25.6 21.4 95 0.6 NE 6 7 3 4 1006.1 - 0.4
04/02:00am 22.2 25.5 21.5 96 0.5 NW 6 7 3 4 1006.4 - 0.4
04/01:30am 22.2 26.7 21.5 96 0.5 CALM 0 6 0 3 1006.6 - 0.4
04/01:00am 22.4 26.9 21.5 95 0.6 CALM 0 0 0 0 1006.6 - 0.4
04/12:30am 22.5 27.1 21.8 96 0.5 CALM 0 0 0 0 1006.6 - 0.4
04/12:00am 22.3 26.8 21.6 96 0.5 CALM 0 0 0 0 1006.9 1003.3 0.4
 
Date/Time
EDT
Temp
°C
App
Temp
°C
Dew
Point
Rel
Hum
%
Delta-T
°C
Wind Press
QNH
hPa
Press
MSL
hPa
Rain
since 9 am
mm
Dir
 
Spd
km/h
Gust
km/h
Spd
kts
Gust
kts
03/11:30pm 22.2 25.6 21.6 96 0.4 S 6 7 3 4 1007.2 - 0.4
03/11:00pm 21.7 24.9 21.3 98 0.3 SSE 6 11 3 6 1007.2 - 0.4
03/10:30pm 22.2 26.6 21.3 95 0.6 CALM 0 0 0 0 1007.1 - 0.4
03/10:00pm 22.2 25.4 21.3 95 0.6 NW 6 9 3 5 1007.1 - 0.4
03/09:30pm 23.0 25.9 21.7 92 0.9 NNW 9 13 5 7 1006.6 - 0.4
03/09:00pm 23.3 26.2 21.7 91 1.1 N 9 11 5 6 1006.2 1002.5 0.4
03/08:30pm 23.9 26.8 21.8 88 1.4 N 9 11 5 6 1006.5 - 0.4
03/08:00pm 24.6 27.1 21.7 84 2.0 N 11 17 6 9 1005.9 - 0.4
03/07:30pm 25.6 28.4 21.6 78 2.7 N 9 13 5 7 1005.3 - 0.4
03/07:00pm 26.8 29.4 21.9 74 3.4 NNW 11 13 6 7 1005.0 - 0.4
03/06:30pm 26.7 29.3 21.9 75 3.3 N 11 15 6 8 1004.5 - 0.4
03/06:00pm 27.2 30.1 21.7 72 3.8 N 9 13 5 7 1004.6 1000.9 0.4
03/05:30pm 27.7 30.5 21.6 69 4.2 NNW 9 13 5 7 1004.3 - 0.4
03/05:00pm 26.6 28.6 20.8 70 3.9 NNW 11 15 6 8 1005.1 - 0.4
03/04:30pm 26.2 28.3 20.9 72 3.6 NNW 11 15 6 8 1005.3 - 0.4
03/04:00pm 26.4 28.1 20.9 72 3.7 N 13 19 7 10 1005.3 - 0.4
03/03:30pm 26.9 29.2 21.3 71 3.8 NNE 11 17 6 9 1005.1 - 0.4
03/03:00pm 26.3 28.0 21.0 72 3.6 NE 13 20 7 11 1005.7 1002.1 0.4
03/02:30pm 25.3 27.4 20.9 76 3.0 NNE 11 15 6 8 1006.2 - 0.4
03/02:00pm 24.5 27.0 20.3 77 2.8 NNE 7 9 4 5 1006.7 - 0.4

Other Formats:

Comma delimited format used in spreadsheet applications
http://www.bom.gov.au/fwo/IDN60801/IDN60801.94541.axf

JavaScript Object Notation format (JSON) in row-major order
http://www.bom.gov.au/fwo/IDN60801/IDN60801.94541.json